Time;durP1;ratioP1;P1;durP2;ratioP2;P2;SDS_P1;SDS_P2;PMS_P1;PMS_P2;Temp;Humidity;BMP_temperature;BMP_pressure;BME280_temperature;BME280_humidity;BME280_pressure;Samples;Min_cycle;Max_cycle;Signal;HPM_P1;HPM_P2
2022/07/08 00:00:40;;;;;;;5.45;0.90;;;15.90;99.90;;;;;;5011501;28;20422;-71
2022/07/08 00:03:06;;;;;;;4.20;0.80;;;15.70;99.90;;;;;;4993273;28;20040;-71
2022/07/08 00:05:31;;;;;;;6.75;1.10;;;15.90;99.90;;;;;;4993913;28;20026;-71
2022/07/08 00:07:57;;;;;;;5.38;0.60;;;15.80;99.90;;;;;;5010841;28;20041;-71
2022/07/08 00:10:23;;;;;;;4.50;0.80;;;15.90;97.80;;;;;;5010450;28;20026;-71
2022/07/08 00:12:49;;;;;;;6.88;1.75;;;15.90;97.80;;;;;;5011065;28;20435;-71
2022/07/08 00:15:14;;;;;;;8.35;1.20;;;16.00;99.90;;;;;;5011169;28;20022;-70
2022/07/08 00:17:40;;;;;;;3.83;0.80;;;15.80;99.90;;;;;;5011544;28;20038;-71
2022/07/08 00:20:06;;;;;;;6.68;0.85;;;15.80;99.90;;;;;;5010575;28;20049;-71
2022/07/08 00:22:33;;;;;;;5.32;1.23;;;16.00;99.90;;;;;;5011059;28;20061;-71
2022/07/08 00:24:59;;;;;;;4.95;1.77;;;16.00;99.90;;;;;;5009993;28;20034;-71
2022/07/08 00:27:24;;;;;;;7.20;1.70;;;16.00;99.90;;;;;;5011102;28;20028;-71
2022/07/08 00:29:50;;;;;;;5.25;1.60;;;15.70;99.90;;;;;;5010728;28;20395;-70
2022/07/08 00:32:16;;;;;;;2.20;0.50;;;15.70;99.90;;;;;;5010862;28;20048;-71
2022/07/08 00:34:41;;;;;;;3.88;0.77;;;15.40;99.90;;;;;;5011366;28;20112;-71
2022/07/08 00:37:07;;;;;;;5.07;1.00;;;15.70;99.90;;;;;;5010583;28;20026;-71
2022/07/08 00:39:32;;;;;;;8.07;1.25;;;15.70;99.90;;;;;;5010582;28;20036;-71
2022/07/08 00:41:58;;;;;;;9.13;1.65;;;15.70;99.90;;;;;;5010364;28;20061;-71
2022/07/08 00:44:24;;;;;;;4.75;1.00;;;15.60;99.90;;;;;;5010670;28;20026;-71
2022/07/08 00:46:50;;;;;;;2.65;0.70;;;15.70;99.90;;;;;;5010594;28;20026;-71
2022/07/08 00:49:15;;;;;;;6.35;1.10;;;15.60;99.90;;;;;;5010254;28;20431;-71
2022/07/08 00:51:42;;;;;;;4.68;0.90;;;15.60;99.90;;;;;;5011021;28;20033;-71
2022/07/08 00:54:12;;;;;;;10.32;1.85;;;15.40;99.90;;;;;;4992036;28;20030;-71
2022/07/08 00:56:38;;;;;;;7.72;1.17;;;15.60;99.90;;;;;;5010281;28;20018;-71
2022/07/08 00:59:04;;;;;;;3.55;1.33;;;15.50;99.90;;;;;;5010076;28;20044;-71
2022/07/08 01:01:29;;;;;;;4.20;0.68;;;16.20;99.10;;;;;;5010385;28;20026;-71
2022/07/08 01:03:55;;;;;;;7.25;0.85;;;15.40;99.90;;;;;;5010041;28;20042;-71
2022/07/08 01:06:20;;;;;;;4.82;1.20;;;15.40;99.90;;;;;;5009902;28;20101;-71
2022/07/08 01:08:46;;;;;;;7.93;1.38;;;15.50;99.90;;;;;;5009540;28;20033;-71
2022/07/08 01:11:13;;;;;;;4.05;0.77;;;15.50;99.90;;;;;;5009934;28;20038;-71
2022/07/08 01:13:39;;;;;;;5.18;1.52;;;15.40;99.90;;;;;;5010036;28;20030;-71
2022/07/08 01:16:05;;;;;;;6.13;1.50;;;15.50;99.90;;;;;;5009845;28;20135;-71
2022/07/08 01:18:31;;;;;;;6.03;1.70;;;15.60;99.90;;;;;;5009403;28;20037;-71
2022/07/08 01:20:58;;;;;;;3.90;0.90;;;15.30;99.90;;;;;;4992105;28;20049;-71
2022/07/08 01:23:24;;;;;;;4.43;1.00;;;15.30;99.90;;;;;;4991523;28;20395;-71
2022/07/08 01:25:51;;;;;;;6.32;1.42;;;15.40;99.90;;;;;;5009794;28;20030;-71
2022/07/08 01:28:16;;;;;;;11.20;3.00;;;15.30;99.90;;;;;;5009473;28;20088;-71
2022/07/08 01:30:43;;;;;;;4.25;1.00;;;15.40;99.90;;;;;;5009727;28;20034;-71
2022/07/08 01:33:08;;;;;;;6.50;1.40;;;15.60;99.90;;;;;;5009563;28;20031;-71
2022/07/08 01:35:34;;;;;;;4.20;1.13;;;15.20;99.90;;;;;;5009563;28;20025;-71
2022/07/08 01:37:59;;;;;;;4.63;1.55;;;15.20;99.90;;;;;;5008973;28;20038;-71
2022/07/08 01:40:25;;;;;;;5.07;1.42;;;15.10;99.90;;;;;;5009755;28;20022;-71
2022/07/08 01:42:50;;;;;;;8.70;1.20;;;15.20;99.90;;;;;;5009437;28;20438;-71
2022/07/08 01:45:16;;;;;;;5.22;1.13;;;;;;;;;;5009278;28;20113;-71
2022/07/08 01:47:42;;;;;;;6.53;1.00;;;;;;;;;;5009387;28;20521;-71
2022/07/08 01:50:09;;;;;;;6.60;1.58;;;;;;;;;;5009390;28;20080;-71
2022/07/08 01:52:34;;;;;;;3.92;0.90;;;14.90;99.90;;;;;;5008730;28;20364;-72
2022/07/08 01:55:00;;;;;;;7.35;1.30;;;15.00;99.90;;;;;;5009171;28;20048;-71
2022/07/08 01:57:25;;;;;;;6.10;2.03;;;15.50;99.90;;;;;;5009494;28;20024;-71
2022/07/08 01:59:51;;;;;;;2.38;0.85;;;15.00;99.90;;;;;;5009156;28;20152;-71
2022/07/08 02:02:18;;;;;;;5.95;1.23;;;15.00;99.90;;;;;;5009198;28;20026;-72
2022/07/08 02:04:44;;;;;;;6.05;1.20;;;15.00;99.90;;;;;;4991374;28;20044;-72
2022/07/08 02:07:10;;;;;;;5.32;1.83;;;15.10;99.90;;;;;;5008473;28;20026;-72
2022/07/08 02:09:37;;;;;;;2.58;1.00;;;14.70;99.90;;;;;;5009182;28;20029;-72
2022/07/08 02:12:19;;;;;;;2.97;0.80;;;15.00;99.90;;;;;;5009032;28;20021;-72
2022/07/08 02:14:48;;;;;;;7.05;1.70;;;15.00;99.90;;;;;;5008948;28;20375;-72
2022/07/08 02:17:14;;;;;;;3.53;1.25;;;15.00;99.90;;;;;;4991471;28;20363;-72
2022/07/08 02:19:41;;;;;;;6.85;1.40;;;15.10;99.90;;;;;;5008868;28;20205;-72
2022/07/08 02:22:07;;;;;;;5.38;1.23;;;15.20;99.90;;;;;;5008316;28;20356;-72
2022/07/08 02:24:34;;;;;;;5.63;1.13;;;;;;;;;;4991198;28;20517;-72
2022/07/08 02:26:59;;;;;;;6.68;1.98;;;15.10;99.90;;;;;;5007997;28;20101;-72
2022/07/08 02:29:25;;;;;;;7.18;1.15;;;15.00;99.90;;;;;;4991501;28;20133;-72
2022/07/08 02:31:50;;;;;;;6.35;1.75;;;14.90;99.90;;;;;;5011592;28;20539;-72
2022/07/08 02:34:16;;;;;;;4.32;1.10;;;14.90;99.90;;;;;;5013120;28;20048;-72
2022/07/08 02:36:41;;;;;;;8.68;1.30;;;14.90;99.90;;;;;;5012669;28;20034;-72
2022/07/08 02:39:07;;;;;;;4.20;0.98;;;14.70;99.90;;;;;;5012777;28;20113;-72
2022/07/08 02:41:32;;;;;;;3.85;1.05;;;14.80;99.90;;;;;;5013232;28;20112;-72
2022/07/08 02:43:58;;;;;;;8.63;2.13;;;14.70;99.90;;;;;;5012637;28;20395;-72
2022/07/08 02:46:23;;;;;;;4.47;1.25;;;14.60;99.90;;;;;;5012801;28;20018;-72
2022/07/08 02:48:49;;;;;;;8.75;1.38;;;14.20;99.90;;;;;;5012549;28;20051;-73
2022/07/08 02:51:14;;;;;;;7.43;1.20;;;14.50;99.90;;;;;;5012204;28;20494;-72
2022/07/08 02:53:40;;;;;;;6.38;1.27;;;14.50;99.90;;;;;;5012779;28;20144;-72
2022/07/08 02:56:06;;;;;;;5.70;1.40;;;14.50;99.90;;;;;;5012269;28;20030;-71
2022/07/08 02:58:31;;;;;;;12.98;2.42;;;14.30;99.90;;;;;;5012738;28;20080;-72
2022/07/08 03:00:57;;;;;;;9.85;1.60;;;14.30;99.90;;;;;;4994830;28;20033;-73
2022/07/08 03:03:23;;;;;;;7.18;1.58;;;;;;;;;;5012030;28;20038;-72
2022/07/08 03:05:49;;;;;;;5.88;1.60;;;14.00;99.90;;;;;;5011830;28;20037;-72
2022/07/08 03:08:14;;;;;;;7.65;1.48;;;14.50;99.90;;;;;;5012278;28;20049;-72
2022/07/08 03:10:40;;;;;;;9.23;1.15;;;14.00;99.90;;;;;;4994654;28;20028;-72
2022/07/08 03:13:05;;;;;;;7.22;2.08;;;13.90;99.90;;;;;;4994298;28;20037;-72
2022/07/08 03:15:31;;;;;;;6.57;1.42;;;;;;;;;;5012405;28;20123;-72
2022/07/08 03:17:57;;;;;;;6.07;1.15;;;13.90;99.90;;;;;;5012251;28;20030;-72
2022/07/08 03:20:23;;;;;;;9.88;1.40;;;;;;;;;;5011227;28;20064;-72
2022/07/08 03:22:48;;;;;;;6.45;1.52;;;13.80;99.90;;;;;;5011922;28;20026;-71
2022/07/08 03:25:14;;;;;;;6.30;1.60;;;13.80;99.90;;;;;;5011834;28;20053;-72
2022/07/08 03:27:40;;;;;;;6.90;1.50;;;13.70;99.90;;;;;;4994208;28;20037;-72
2022/07/08 03:30:06;;;;;;;4.25;1.77;;;13.60;99.90;;;;;;5011778;28;20029;-71
2022/07/08 03:32:32;;;;;;;8.43;1.50;;;13.70;99.90;;;;;;5011941;28;20030;-72
2022/07/08 03:34:57;;;;;;;7.55;1.75;;;13.70;99.90;;;;;;5011375;28;20033;-72
2022/07/08 03:37:23;;;;;;;8.32;1.90;;;13.60;99.90;;;;;;5011582;28;20022;-72
2022/07/08 03:39:50;;;;;;;9.95;1.88;;;13.50;99.90;;;;;;5011688;28;20434;-72
2022/07/08 03:42:16;;;;;;;6.65;2.05;;;13.60;99.90;;;;;;5010998;28;20076;-72
2022/07/08 03:44:42;;;;;;;8.18;2.03;;;13.60;99.90;;;;;;5011653;28;20121;-72
2022/07/08 03:47:08;;;;;;;4.70;1.38;;;13.50;99.90;;;;;;5011442;28;20117;-72
2022/07/08 03:49:34;;;;;;;8.93;1.25;;;;;;;;;;5011136;28;20065;-72
2022/07/08 03:52:00;;;;;;;4.32;1.67;;;13.50;99.90;;;;;;5011396;28;20068;-71
2022/07/08 03:54:25;;;;;;;9.32;1.40;;;13.50;99.90;;;;;;5011539;28;20447;-71
2022/07/08 03:56:52;;;;;;;6.43;1.65;;;13.50;99.90;;;;;;4993815;28;20029;-71
2022/07/08 03:59:18;;;;;;;7.38;1.48;;;13.50;99.90;;;;;;5011418;28;20121;-72
2022/07/08 04:01:43;;;;;;;4.72;1.15;;;13.40;99.90;;;;;;5011042;28;20541;-72
2022/07/08 04:04:09;;;;;;;4.35;1.23;;;13.50;99.90;;;;;;5010872;28;20034;-72
2022/07/08 04:06:35;;;;;;;6.55;1.52;;;13.20;99.90;;;;;;5011552;28;20052;-71
2022/07/08 04:09:01;;;;;;;6.05;1.73;;;;;;;;;;5011029;28;20356;-71
2022/07/08 04:11:26;;;;;;;9.07;1.67;;;13.40;99.90;;;;;;5011314;28;20097;-71
2022/07/08 04:13:52;;;;;;;8.00;1.83;;;;;;;;;;5011341;28;20065;-72
2022/07/08 04:16:18;;;;;;;7.95;1.83;;;13.50;99.90;;;;;;5010814;28;20129;-71
2022/07/08 04:18:44;;;;;;;12.25;1.50;;;;;;;;;;5010535;28;20452;-72
2022/07/08 04:21:09;;;;;;;5.35;1.40;;;13.40;99.90;;;;;;5010998;28;20034;-71
2022/07/08 04:23:35;;;;;;;4.88;1.17;;;13.50;99.90;;;;;;5010879;28;20045;-72
2022/07/08 04:26:01;;;;;;;6.45;1.63;;;13.10;99.90;;;;;;5010751;28;20033;-72
2022/07/08 04:28:27;;;;;;;7.95;1.35;;;13.40;99.90;;;;;;4993200;28;20033;-72
2022/07/08 04:30:52;;;;;;;5.45;1.77;;;13.50;99.90;;;;;;5010565;28;20026;-72
2022/07/08 04:33:18;;;;;;;5.30;1.50;;;13.30;99.90;;;;;;5010267;28;20040;-71
2022/07/08 04:35:44;;;;;;;4.22;1.45;;;13.60;99.90;;;;;;5010488;28;20026;-72
2022/07/08 04:38:10;;;;;;;8.32;1.60;;;;;;;;;;5010571;28;20495;-72
2022/07/08 04:40:35;;;;;;;6.97;1.77;;;13.80;99.90;;;;;;5010539;28;20025;-72
2022/07/08 04:43:01;;;;;;;5.28;1.98;;;;;;;;;;4992677;28;20034;-72
2022/07/08 04:45:27;;;;;;;9.40;1.77;;;13.80;99.90;;;;;;5010053;28;20141;-72
2022/07/08 04:47:53;;;;;;;8.05;2.40;;;13.90;99.90;;;;;;5010426;28;20095;-72
2022/07/08 04:50:19;;;;;;;15.23;2.25;;;13.80;99.90;;;;;;5010366;28;20061;-72
2022/07/08 04:52:45;;;;;;;8.02;1.40;;;13.70;99.90;;;;;;5009725;28;20049;-71
2022/07/08 04:55:29;;;;;;;9.32;2.03;;;13.80;99.90;;;;;;5009920;28;20096;-72
2022/07/08 04:57:59;;;;;;;10.77;1.90;;;13.80;99.90;;;;;;5010111;28;20026;-72
2022/07/08 05:00:25;;;;;;;4.63;1.75;;;13.70;99.90;;;;;;5010124;28;20105;-72
2022/07/08 05:02:51;;;;;;;8.18;1.73;;;;;;;;;;5009856;28;20427;-71
2022/07/08 05:05:18;;;;;;;6.38;1.60;;;13.90;99.90;;;;;;5006399;28;20045;-72
2022/07/08 05:07:43;;;;;;;4.75;1.30;;;13.80;99.90;;;;;;5001835;28;20026;-71
2022/07/08 05:10:09;;;;;;;4.07;1.40;;;13.80;99.90;;;;;;5009168;28;20080;-71
2022/07/08 05:12:34;;;;;;;4.43;1.98;;;13.80;99.90;;;;;;5010138;28;20068;-72
2022/07/08 05:15:00;;;;;;;3.10;1.58;;;14.20;99.90;;;;;;5008492;28;20029;-71
2022/07/08 05:17:25;;;;;;;5.75;1.73;;;14.10;99.90;;;;;;5009859;28;20025;-72
2022/07/08 05:19:51;;;;;;;5.50;1.42;;;14.30;99.90;;;;;;4991592;28;20049;-71
2022/07/08 05:22:16;;;;;;;9.68;1.65;;;14.30;99.90;;;;;;5009025;28;20100;-71
2022/07/08 05:24:42;;;;;;;7.93;1.70;;;14.60;99.90;;;;;;4992248;28;20037;-72
2022/07/08 05:27:07;;;;;;;13.55;1.65;;;14.60;99.90;;;;;;5009133;28;20021;-72
2022/07/08 05:29:33;;;;;;;2.85;1.38;;;14.70;99.90;;;;;;4991630;28;20026;-71
2022/07/08 05:31:59;;;;;;;7.70;1.63;;;;;;;;;;5009712;28;20037;-72
2022/07/08 05:34:24;;;;;;;5.90;1.80;;;14.70;99.90;;;;;;5009682;28;20102;-72
2022/07/08 05:36:50;;;;;;;7.03;1.50;;;;;;;;;;5009940;28;20046;-72
2022/07/08 05:39:16;;;;;;;5.72;2.20;;;14.90;99.90;;;;;;5009275;28;20034;-72
2022/07/08 05:41:42;;;;;;;5.53;1.60;;;;;;;;;;5009437;28;20033;-72
2022/07/08 05:44:08;;;;;;;7.53;1.73;;;15.00;99.90;;;;;;5008733;28;20126;-72
2022/07/08 05:46:34;;;;;;;9.30;1.63;;;;;;;;;;5009355;28;20030;-72
2022/07/08 05:49:00;;;;;;;11.02;1.85;;;15.20;99.90;;;;;;5009362;28;20414;-72
2022/07/08 05:51:25;;;;;;;9.10;2.00;;;15.40;99.90;;;;;;5009398;28;20113;-72
2022/07/08 05:53:55;;;;;;;10.05;1.80;;;15.10;99.90;;;;;;5009352;28;20475;-72
2022/07/08 05:56:21;;;;;;;8.20;1.73;;;15.40;99.90;;;;;;5008989;28;20113;-72
2022/07/08 05:58:46;;;;;;;8.30;1.33;;;15.60;99.90;;;;;;5008841;28;20108;-72
2022/07/08 06:01:14;;;;;;;8.02;1.70;;;15.40;99.90;;;;;;5008965;28;20033;-72
2022/07/08 06:03:39;;;;;;;3.42;0.93;;;15.70;99.90;;;;;;4991524;28;20048;-72
2022/07/08 06:06:05;;;;;;;8.80;1.50;;;15.50;99.90;;;;;;5009053;28;20109;-73
2022/07/08 06:08:31;;;;;;;6.97;1.70;;;15.50;99.90;;;;;;5009561;28;20104;-72
2022/07/08 06:10:56;;;;;;;5.82;1.58;;;15.90;99.90;;;;;;5009309;28;20018;-72
2022/07/08 06:13:22;;;;;;;7.85;1.40;;;16.00;99.90;;;;;;5008599;28;20098;-73
2022/07/08 06:15:48;;;;;;;13.82;1.98;;;16.00;99.90;;;;;;5009308;28;20034;-73
2022/07/08 06:18:13;;;;;;;6.97;1.77;;;16.30;99.90;;;;;;5008862;28;20037;-72
2022/07/08 06:20:39;;;;;;;6.20;1.40;;;16.20;99.90;;;;;;5009249;28;20088;-73
2022/07/08 06:23:04;;;;;;;26.45;2.38;;;16.30;99.90;;;;;;5009116;28;20026;-73
2022/07/08 06:25:30;;;;;;;9.10;1.60;;;16.50;99.90;;;;;;5009217;28;20042;-73
2022/07/08 06:27:55;;;;;;;9.23;1.30;;;16.60;99.90;;;;;;5008650;28;20448;-73
2022/07/08 06:30:21;;;;;;;6.55;1.27;;;16.80;99.90;;;;;;5008763;28;20110;-73
2022/07/08 06:32:46;;;;;;;6.88;1.20;;;16.90;99.90;;;;;;5009009;28;20482;-73
2022/07/08 06:35:12;;;;;;;9.80;1.50;;;16.90;99.90;;;;;;5008817;28;20391;-72
2022/07/08 06:37:38;;;;;;;7.75;1.52;;;17.30;99.90;;;;;;5008895;28;20463;-73
2022/07/08 06:40:05;;;;;;;7.22;0.90;;;17.40;99.90;;;;;;5007135;28;20041;-73
2022/07/08 06:42:30;;;;;;;5.35;1.40;;;17.50;99.80;;;;;;5008440;28;20471;-73
2022/07/08 06:44:56;;;;;;;5.43;1.15;;;17.40;99.90;;;;;;5008856;28;20044;-73
2022/07/08 06:47:22;;;;;;;6.57;1.35;;;17.50;99.80;;;;;;5008964;28;20386;-73
2022/07/08 06:49:49;;;;;;;6.30;1.10;;;17.50;99.70;;;;;;5008894;28;20446;-73
2022/07/08 06:52:14;;;;;;;10.15;1.20;;;17.60;99.70;;;;;;5008548;28;20098;-73
2022/07/08 06:54:40;;;;;;;7.97;1.55;;;17.70;99.60;;;;;;5008701;28;20121;-73
2022/07/08 06:57:07;;;;;;;4.45;1.38;;;17.80;99.50;;;;;;5008131;28;20030;-73
2022/07/08 06:59:34;;;;;;;7.35;1.38;;;17.80;99.60;;;;;;5008729;28;20022;-73
2022/07/08 07:01:59;;;;;;;6.18;1.25;;;17.80;99.20;;;;;;5008719;28;20026;-73
2022/07/08 07:04:26;;;;;;;7.80;1.42;;;17.90;99.10;;;;;;5008848;28;20030;-73
2022/07/08 07:06:52;;;;;;;9.85;1.45;;;17.80;99.10;;;;;;5008738;28;20026;-72
2022/07/08 07:09:17;;;;;;;8.45;1.75;;;17.90;98.90;;;;;;5008497;28;20026;-72
2022/07/08 07:11:43;;;;;;;5.35;1.35;;;17.90;98.80;;;;;;5007942;28;20382;-73
2022/07/08 07:14:08;;;;;;;8.70;1.48;;;18.10;98.70;;;;;;5008538;28;20049;-73
2022/07/08 07:16:34;;;;;;;9.38;1.40;;;18.20;98.70;;;;;;5008931;28;20030;-73
2022/07/08 07:18:59;;;;;;;11.70;1.45;;;18.40;98.50;;;;;;5011870;28;20026;-72
2022/07/08 07:21:25;;;;;;;9.80;1.45;;;18.40;98.40;;;;;;5012491;28;20069;-73
2022/07/08 07:23:50;;;;;;;5.45;0.85;;;18.60;98.30;;;;;;5011622;28;20076;-73
2022/07/08 07:26:16;;;;;;;8.52;2.08;;;18.60;98.10;;;;;;5011413;28;20026;-73
2022/07/08 07:28:42;;;;;;;7.47;2.00;;;18.60;98.10;;;;;;5011944;28;20033;-73
2022/07/08 07:31:07;;;;;;;3.15;1.20;;;18.40;98.10;;;;;;5011756;28;20475;-72
2022/07/08 07:33:33;;;;;;;8.52;1.35;;;18.40;98.30;;;;;;4994439;28;20026;-73
2022/07/08 07:35:59;;;;;;;4.15;1.63;;;18.40;98.30;;;;;;5011426;28;20052;-73
2022/07/08 07:38:24;;;;;;;10.05;1.73;;;18.40;98.20;;;;;;5011764;28;20088;-73
2022/07/08 07:40:50;;;;;;;6.22;1.17;;;18.40;98.10;;;;;;5011111;28;20457;-73
2022/07/08 07:43:16;;;;;;;5.32;1.70;;;18.50;98.00;;;;;;5011470;28;20034;-73
2022/07/08 07:45:42;;;;;;;6.88;1.10;;;18.50;97.90;;;;;;5011853;28;20036;-73
2022/07/08 07:48:07;;;;;;;4.47;1.55;;;18.60;97.90;;;;;;5011441;28;20358;-70
2022/07/08 07:50:33;;;;;;;8.60;1.75;;;18.70;97.90;;;;;;5011843;28;20108;-72
2022/07/08 07:52:58;;;;;;;5.63;1.42;;;18.60;97.80;;;;;;5011320;28;20386;-71
2022/07/08 07:55:24;;;;;;;7.28;1.45;;;18.70;97.70;;;;;;4993604;28;20029;-71
2022/07/08 07:57:49;;;;;;;10.70;1.50;;;18.60;97.50;;;;;;5011156;28;20069;-71
2022/07/08 08:00:16;;;;;;;5.72;1.70;;;18.60;97.50;;;;;;4993611;28;20042;-71
2022/07/08 08:02:42;;;;;;;5.82;1.17;;;18.80;97.50;;;;;;5011242;28;20113;-71
2022/07/08 08:05:09;;;;;;;5.20;1.38;;;18.70;97.50;;;;;;5010857;28;20133;-71
2022/07/08 08:07:37;;;;;;;6.43;1.38;;;18.70;97.60;;;;;;5011121;28;20052;-71
2022/07/08 08:10:02;;;;;;;8.25;1.35;;;18.70;97.70;;;;;;5010697;28;20083;-71
2022/07/08 08:12:28;;;;;;;5.57;1.33;;;;;;;;;;5011443;28;20038;-71
2022/07/08 08:14:54;;;;;;;4.85;1.27;;;18.80;96.20;;;;;;5010879;28;20030;-71
2022/07/08 08:17:19;;;;;;;6.78;1.38;;;18.70;97.20;;;;;;5010806;28;20033;-71
2022/07/08 08:19:45;;;;;;;5.45;0.95;;;18.80;97.20;;;;;;5010624;28;20060;-71
2022/07/08 08:22:10;;;;;;;7.57;1.35;;;18.90;97.20;;;;;;4993078;28;20045;-71
2022/07/08 08:24:36;;;;;;;8.55;1.45;;;19.00;96.60;;;;;;5010830;28;20116;-71
2022/07/08 08:27:02;;;;;;;7.75;1.00;;;19.20;96.40;;;;;;5010519;28;20120;-71
2022/07/08 08:29:27;;;;;;;8.45;1.90;;;19.30;96.20;;;;;;5011142;28;20456;-71
2022/07/08 08:31:53;;;;;;;6.88;1.65;;;19.50;95.90;;;;;;5010679;28;20423;-71
2022/07/08 08:34:18;;;;;;;4.97;1.17;;;19.90;95.70;;;;;;5010716;28;20493;-71
2022/07/08 08:36:44;;;;;;;5.45;1.05;;;21.10;95.80;;;;;;5010922;28;20026;-72
2022/07/08 08:39:09;;;;;;;6.70;1.42;;;19.90;95.40;;;;;;5010108;28;20510;-71
2022/07/08 08:41:35;;;;;;;8.43;1.27;;;19.90;95.50;;;;;;5010645;28;20026;-71
2022/07/08 08:44:01;;;;;;;7.82;1.00;;;19.80;95.60;;;;;;5010064;28;20041;-72
2022/07/08 08:46:27;;;;;;;5.13;0.98;;;19.80;95.50;;;;;;5010549;28;20018;-71
2022/07/08 08:48:56;;;;;;;5.00;0.95;;;19.70;95.50;;;;;;5010237;28;20028;-71
2022/07/08 08:51:22;;;;;;;5.60;1.50;;;20.00;95.60;;;;;;5010336;28;20093;-71
2022/07/08 08:53:49;;;;;;;5.72;1.42;;;20.10;95.30;;;;;;5009818;28;20076;-72
2022/07/08 08:56:16;;;;;;;6.90;1.50;;;20.10;95.00;;;;;;5009961;28;20061;-71
2022/07/08 08:58:46;;;;;;;5.88;1.48;;;20.40;95.00;;;;;;5010198;28;20088;-71
2022/07/08 09:01:13;;;;;;;5.60;1.48;;;20.50;94.80;;;;;;5010385;28;20135;-71
2022/07/08 09:03:39;;;;;;;5.50;1.70;;;20.40;94.50;;;;;;5010070;28;20530;-71
2022/07/08 09:06:05;;;;;;;5.18;0.90;;;20.70;94.40;;;;;;5009919;28;20143;-71
2022/07/08 09:08:32;;;;;;;7.03;1.05;;;20.90;94.30;;;;;;5009657;28;20038;-71
2022/07/08 09:10:58;;;;;;;3.50;0.70;;;21.10;93.90;;;;;;5009949;28;20025;-71
2022/07/08 09:13:25;;;;;;;5.43;1.45;;;21.20;93.80;;;;;;5009983;28;20036;-72
2022/07/08 09:15:54;;;;;;;4.40;0.90;;;21.30;93.40;;;;;;5009954;28;20056;-71
2022/07/08 09:18:22;;;;;;;6.95;1.05;;;21.40;93.30;;;;;;5009307;28;20065;-71
2022/07/08 09:20:51;;;;;;;5.35;0.85;;;21.50;93.30;;;;;;5009664;28;20105;-72
2022/07/08 09:23:17;;;;;;;6.55;1.20;;;22.80;93.40;;;;;;5009135;28;20136;-72
2022/07/08 09:25:52;;;;;;;4.60;1.40;;;22.00;93.00;;;;;;5009984;28;20133;-71
2022/07/08 09:28:28;;;;;;;6.65;1.48;;;21.70;93.30;;;;;;5009316;28;20034;-71
2022/07/08 09:30:56;;;;;;;8.10;1.25;;;21.70;93.30;;;;;;5009591;28;20378;-71
2022/07/08 09:33:21;;;;;;;5.70;1.05;;;21.60;93.20;;;;;;5009277;28;20018;-71
2022/07/08 09:35:50;;;;;;;4.47;1.10;;;22.70;93.50;;;;;;5009067;28;20471;-71
2022/07/08 09:38:18;;;;;;;4.68;0.90;;;21.40;93.20;;;;;;5009381;28;20092;-71
2022/07/08 09:41:04;;;;;;;7.75;0.73;;;21.40;93.60;;;;;;5008733;28;20456;-71
2022/07/08 09:43:42;;;;;;;5.35;1.10;;;21.40;93.00;;;;;;5009571;28;20048;-72
2022/07/08 09:46:08;;;;;;;4.07;1.00;;;22.50;93.90;;;;;;5009303;28;20018;-71
2022/07/08 09:48:34;;;;;;;4.55;0.90;;;21.50;93.20;;;;;;5009449;28;20028;-71
2022/07/08 09:51:07;;;;;;;6.97;1.60;;;21.50;93.00;;;;;;5008592;28;20154;-72
2022/07/08 09:53:33;;;;;;;4.10;0.68;;;21.50;93.00;;;;;;5009101;28;20357;-71
2022/07/08 09:55:59;;;;;;;3.08;0.90;;;21.70;92.90;;;;;;5008571;28;20045;-71
2022/07/08 09:58:27;;;;;;;5.85;0.85;;;21.70;92.80;;;;;;5009287;28;20376;-71
2022/07/08 10:00:54;;;;;;;3.30;0.77;;;21.80;92.70;;;;;;5009217;28;20021;-71
2022/07/08 10:03:22;;;;;;;5.10;1.25;;;22.10;92.30;;;;;;5009088;28;20400;-71
2022/07/08 10:05:48;;;;;;;10.23;1.70;;;22.20;92.00;;;;;;4990835;28;20517;-71
2022/07/08 10:08:15;;;;;;;5.63;1.10;;;22.40;91.50;;;;;;5008899;28;20033;-71
2022/07/08 10:10:42;;;;;;;4.50;1.00;;;22.40;91.30;;;;;;5009180;28;20030;-71
2022/07/08 10:13:08;;;;;;;6.00;1.38;;;22.40;91.30;;;;;;5009319;28;20053;-71
2022/07/08 10:15:36;;;;;;;5.85;1.35;;;22.30;91.20;;;;;;5009113;28;20026;-71
2022/07/08 10:18:14;;;;;;;5.35;1.10;;;22.40;91.50;;;;;;5008858;28;20121;-71
2022/07/08 10:20:44;;;;;;;6.43;1.50;;;22.40;91.00;;;;;;4990583;28;20045;-71
2022/07/08 10:23:18;;;;;;;4.53;1.27;;;22.70;91.80;;;;;;5009285;28;20168;-71
2022/07/08 10:25:45;;;;;;;7.70;1.08;;;22.20;91.90;;;;;;5009008;28;20112;-71
2022/07/08 10:28:11;;;;;;;5.53;1.33;;;22.00;91.70;;;;;;5008890;28;20017;-71
2022/07/08 10:30:50;;;;;;;7.30;1.27;;;22.20;91.60;;;;;;5009049;28;20022;-71
2022/07/08 10:33:28;;;;;;;4.70;1.15;;;22.40;92.00;;;;;;5009095;28;20136;-71
2022/07/08 10:36:08;;;;;;;4.80;2.00;;;23.20;91.90;;;;;;5008768;28;20394;-71
2022/07/08 10:38:43;;;;;;;7.28;1.08;;;22.80;91.60;;;;;;5008944;28;20025;-71
2022/07/08 10:41:11;;;;;;;5.22;1.13;;;23.10;91.10;;;;;;5008808;28;20033;-71
2022/07/08 10:44:02;;;;;;;4.45;1.33;;;23.40;90.80;;;;;;5008485;28;20482;-71
2022/07/08 10:46:29;;;;;;;5.82;1.40;;;23.60;90.70;;;;;;5008729;28;20404;-73
2022/07/08 10:48:59;;;;;;;6.03;1.50;;;23.40;90.00;;;;;;5008353;28;20034;-71
2022/07/08 10:51:25;;;;;;;2.58;1.05;;;23.40;88.70;;;;;;4991454;28;20486;-71
2022/07/08 10:53:50;;;;;;;5.20;1.52;;;23.40;89.90;;;;;;5012678;28;20030;-71
2022/07/08 10:56:44;;;;;;;6.05;1.50;;;23.40;89.20;;;;;;5012209;28;20087;-71
2022/07/08 10:59:32;;;;;;;4.82;1.00;;;23.50;87.70;;;;;;5012294;28;20018;-71
2022/07/08 11:02:16;;;;;;;4.68;1.63;;;23.50;87.50;;;;;;5012407;28;20137;-71
2022/07/08 11:04:47;;;;;;;4.38;1.38;;;23.60;89.10;;;;;;5011507;28;20117;-70
2022/07/08 11:07:27;;;;;;;4.55;2.22;;;23.70;88.30;;;;;;5012306;28;20029;-71
2022/07/08 11:10:03;;;;;;;3.45;1.20;;;23.90;86.00;;;;;;5012012;28;20037;-70
2022/07/08 11:12:32;;;;;;;4.15;1.30;;;23.90;85.40;;;;;;5012169;28;20124;-71
2022/07/08 11:15:00;;;;;;;5.40;1.30;;;23.80;87.20;;;;;;4994130;28;20026;-71
2022/07/08 11:17:31;;;;;;;5.82;1.30;;;24.00;87.10;;;;;;4993913;28;20029;-71
2022/07/08 11:19:58;;;;;;;3.00;0.85;;;24.20;87.20;;;;;;5011922;28;20049;-71
2022/07/08 11:22:25;;;;;;;8.10;1.75;;;24.30;86.40;;;;;;5012385;28;20076;-71
2022/07/08 11:24:51;;;;;;;4.00;1.00;;;24.30;85.90;;;;;;5011907;28;20648;-72
2022/07/08 11:27:25;;;;;;;3.88;1.33;;;24.30;86.00;;;;;;5011859;28;20041;-71
2022/07/08 11:29:52;;;;;;;2.83;0.88;;;24.30;84.60;;;;;;4994034;28;20085;-71
2022/07/08 11:32:20;;;;;;;5.30;1.08;;;24.20;86.10;;;;;;5011155;28;20022;-71
2022/07/08 11:34:50;;;;;;;5.05;1.75;;;25.40;86.50;;;;;;5011732;28;20391;-71
2022/07/08 11:37:15;;;;;;;4.68;1.10;;;24.50;86.40;;;;;;4993927;28;20061;-71
2022/07/08 11:39:42;;;;;;;3.60;0.93;;;24.30;85.70;;;;;;5011873;28;20058;-71
2022/07/08 11:42:09;;;;;;;3.65;1.42;;;24.40;86.00;;;;;;5011467;28;20498;-71
2022/07/08 11:44:35;;;;;;;5.43;1.63;;;24.70;85.80;;;;;;4993763;28;20369;-71
2022/07/08 11:47:01;;;;;;;5.22;1.50;;;24.80;85.20;;;;;;5010920;28;20072;-71
2022/07/08 11:49:26;;;;;;;2.85;1.15;;;25.40;85.00;;;;;;5011819;28;20088;-71
2022/07/08 11:51:53;;;;;;;5.85;0.98;;;24.90;84.20;;;;;;5010496;28;20022;-71
2022/07/08 11:54:21;;;;;;;4.05;1.00;;;26.40;85.40;;;;;;5007755;28;20030;-71
2022/07/08 11:56:47;;;;;;;5.35;1.83;;;24.90;84.80;;;;;;5007826;28;20033;-71
2022/07/08 11:59:25;;;;;;;5.68;1.88;;;24.90;84.60;;;;;;5007712;28;20026;-71
2022/07/08 12:01:57;;;;;;;6.05;1.75;;;24.90;85.00;;;;;;5007068;28;20026;-71
2022/07/08 12:04:23;;;;;;;4.63;1.33;;;24.70;85.10;;;;;;5007284;28;20155;-71
2022/07/08 12:06:54;;;;;;;3.42;1.60;;;25.00;84.30;;;;;;4989700;28;20022;-71
2022/07/08 12:09:24;;;;;;;5.43;1.05;;;24.90;84.20;;;;;;4989255;28;20909;-71
2022/07/08 12:11:52;;;;;;;5.05;1.48;;;25.70;84.60;;;;;;5007350;28;20328;-70
2022/07/08 12:14:18;;;;;;;3.67;1.20;;;25.50;83.60;;;;;;5008461;28;20375;-72
2022/07/08 12:16:49;;;;;;;5.82;1.67;;;25.40;83.30;;;;;;5010387;28;20116;-72
2022/07/08 12:19:31;;;;;;;5.05;1.30;;;25.50;84.00;;;;;;5010947;28;20502;-72
2022/07/08 12:21:59;;;;;;;4.85;2.22;;;25.80;83.70;;;;;;5010406;28;20021;-71
2022/07/08 12:24:27;;;;;;;2.65;1.23;;;25.90;82.90;;;;;;5010846;28;20085;-71
2022/07/08 12:26:58;;;;;;;5.72;1.60;;;25.80;82.20;;;;;;5010924;28;20049;-72
2022/07/08 12:29:31;;;;;;;3.92;1.38;;;25.80;82.90;;;;;;5010942;28;20037;-72
2022/07/08 12:31:56;;;;;;;3.35;1.75;;;25.90;81.40;;;;;;5010680;28;20152;-71
2022/07/08 12:34:24;;;;;;;4.20;0.93;;;27.40;83.20;;;;;;5010409;28;20105;-71
2022/07/08 12:36:50;;;;;;;4.68;1.25;;;26.10;82.30;;;;;;5008936;28;20033;-71
2022/07/08 12:39:22;;;;;;;4.65;1.45;;;25.90;82.20;;;;;;5010708;28;20026;-71
2022/07/08 12:42:01;;;;;;;4.00;1.23;;;26.00;80.40;;;;;;5011008;28;20040;-71
2022/07/08 12:44:34;;;;;;;5.30;1.08;;;26.10;80.50;;;;;;5010201;28;20383;-72
2022/07/08 12:47:01;;;;;;;4.30;1.05;;;25.90;82.40;;;;;;5010552;28;20026;-72
2022/07/08 12:49:29;;;;;;;3.72;1.10;;;26.10;81.80;;;;;;5010623;28;20479;-72
2022/07/08 12:51:56;;;;;;;6.90;1.40;;;25.70;81.70;;;;;;5010601;28;20103;-72